createdAt,value
2022-10-08T00:01:30.410Z,17.40
2022-10-08T00:04:00.027Z,12.77
2022-10-08T00:06:30.082Z,16.13
2022-10-08T00:09:02.247Z,14.30
2022-10-08T00:11:32.464Z,14.67
2022-10-08T00:14:02.031Z,14.03
2022-10-08T00:16:32.373Z,16.77
2022-10-08T00:19:03.863Z,13.57
2022-10-08T00:21:34.058Z,18.17
2022-10-08T00:24:02.971Z,12.53
2022-10-08T00:26:33.818Z,13.57
2022-10-08T00:29:04.464Z,14.87
2022-10-08T00:31:34.442Z,13.97
2022-10-08T00:34:06.390Z,14.93
2022-10-08T00:36:36.409Z,16.33
2022-10-08T00:39:07.004Z,15.27
2022-10-08T00:41:38.182Z,14.40
2022-10-08T00:44:39.870Z,15.87
2022-10-08T00:47:16.227Z,16.97
2022-10-08T00:49:46.586Z,17.10
2022-10-08T00:52:15.012Z,15.23
2022-10-08T00:54:43.402Z,15.70
2022-10-08T00:57:12.047Z,16.53
2022-10-08T00:59:40.388Z,16.60
2022-10-08T01:02:11.451Z,15.80
2022-10-08T01:04:40.769Z,14.20
2022-10-08T01:07:18.947Z,15.47
2022-10-08T01:09:54.256Z,16.13
2022-10-08T01:12:32.778Z,18.80
2022-10-08T01:15:06.852Z,16.70
2022-10-08T01:17:40.243Z,18.63
2022-10-08T01:20:28.631Z,17.83
2022-10-08T01:23:27.800Z,18.33
2022-10-08T01:26:05.026Z,17.43
2022-10-08T01:28:41.932Z,17.73
2022-10-08T01:31:15.376Z,16.40
2022-10-08T01:33:48.910Z,16.90
2022-10-08T01:36:19.451Z,18.30
2022-10-08T01:38:52.421Z,18.20
2022-10-08T01:41:23.069Z,16.73
2022-10-08T01:43:56.790Z,17.53
2022-10-08T01:46:28.441Z,19.03
2022-10-08T01:49:01.943Z,15.77
2022-10-08T01:51:34.147Z,18.10
2022-10-08T01:54:06.432Z,16.27
2022-10-08T01:56:37.394Z,20.37
2022-10-08T01:59:12.866Z,17.43
2022-10-08T02:01:53.243Z,14.97
2022-10-08T02:04:34.464Z,14.50
2022-10-08T02:07:05.762Z,18.77
2022-10-08T02:09:35.507Z,20.30
2022-10-08T02:12:03.734Z,17.07
2022-10-08T02:14:35.409Z,17.00
2022-10-08T02:17:18.746Z,20.03
2022-10-08T02:19:54.397Z,18.90
2022-10-08T02:22:25.828Z,18.97
2022-10-08T02:24:58.948Z,17.00
2022-10-08T02:27:38.074Z,15.97
2022-10-08T02:30:11.343Z,16.27
2022-10-08T02:32:49.241Z,18.03
2022-10-08T02:35:25.449Z,16.17
2022-10-08T02:37:59.830Z,16.03
2022-10-08T02:40:31.038Z,18.37
2022-10-08T02:43:05.409Z,18.97
2022-10-08T02:45:42.541Z,21.60
2022-10-08T02:48:18.398Z,23.33
2022-10-08T02:50:48.859Z,21.17
2022-10-08T02:53:18.443Z,22.53
2022-10-08T02:55:54.740Z,21.43
2022-10-08T02:58:23.311Z,27.13
2022-10-08T03:00:58.253Z,20.33
2022-10-08T03:03:33.208Z,25.53
2022-10-08T03:06:04.790Z,23.17
2022-10-08T03:08:35.175Z,26.27
2022-10-08T03:11:05.090Z,29.53
2022-10-08T03:13:36.948Z,22.23
2022-10-08T03:16:09.938Z,24.43
2022-10-08T03:18:39.247Z,19.67
2022-10-08T03:21:09.914Z,23.80
2022-10-08T03:23:38.055Z,23.80
2022-10-08T03:26:06.486Z,20.90
2022-10-08T03:28:34.885Z,20.97
2022-10-08T03:31:07.422Z,24.93
2022-10-08T03:33:35.675Z,20.17
2022-10-08T03:36:03.788Z,19.50
2022-10-08T03:38:34.549Z,22.43
2022-10-08T03:41:02.650Z,18.90
2022-10-08T03:43:33.043Z,17.97
2022-10-08T03:46:01.574Z,21.87
2022-10-08T03:48:31.173Z,18.37
2022-10-08T03:51:01.122Z,17.43
2022-10-08T03:53:32.864Z,20.80
2022-10-08T03:56:02.929Z,21.03
2022-10-08T03:58:31.770Z,21.27
2022-10-08T04:01:00.709Z,21.47
2022-10-08T04:03:31.026Z,20.93
2022-10-08T04:05:59.518Z,18.47
2022-10-08T04:08:27.956Z,23.47
2022-10-08T04:10:56.116Z,19.27
2022-10-08T04:13:24.267Z,21.57
2022-10-08T04:15:52.784Z,20.00
2022-10-08T04:18:20.914Z,18.13
2022-10-08T04:20:50.373Z,20.63
2022-10-08T04:23:18.522Z,22.43
2022-10-08T04:25:54.011Z,18.50
2022-10-08T04:28:23.107Z,22.90
2022-10-08T04:30:59.065Z,19.97
2022-10-08T04:33:28.155Z,20.10
2022-10-08T04:36:00.363Z,19.80
2022-10-08T04:38:29.752Z,19.30
2022-10-08T04:41:05.918Z,20.37
2022-10-08T04:43:34.167Z,19.13
2022-10-08T04:46:02.297Z,19.93
2022-10-08T04:48:30.735Z,21.13
2022-10-08T04:51:01.944Z,21.93
2022-10-08T04:53:30.814Z,20.77
2022-10-08T04:56:08.193Z,22.33
2022-10-08T04:58:36.386Z,19.37
2022-10-08T05:01:04.894Z,19.00
2022-10-08T05:03:36.271Z,21.10
2022-10-08T05:06:06.506Z,21.07
2022-10-08T05:08:35.154Z,19.00
2022-10-08T05:11:03.299Z,18.10
2022-10-08T05:13:31.418Z,19.77
2022-10-08T05:16:04.789Z,17.40
2022-10-08T05:18:33.422Z,20.23
2022-10-08T05:21:06.661Z,20.40
2022-10-08T05:23:34.900Z,17.77
2022-10-08T05:26:03.486Z,20.20
2022-10-08T05:28:31.683Z,18.40
2022-10-08T05:31:03.206Z,22.10
2022-10-08T05:33:31.365Z,18.93
2022-10-08T05:36:03.093Z,21.00
2022-10-08T05:38:35.005Z,19.67
2022-10-08T05:41:11.798Z,20.30
2022-10-08T05:43:39.969Z,20.77
2022-10-08T05:46:08.308Z,25.33
2022-10-08T05:48:36.602Z,18.33
2022-10-08T05:51:06.207Z,21.63
2022-10-08T05:53:37.991Z,18.23
2022-10-08T05:56:07.580Z,18.17
2022-10-08T05:58:36.962Z,17.40
2022-10-08T06:01:07.006Z,21.83
2022-10-08T06:03:35.250Z,21.93
2022-10-08T06:06:05.120Z,21.43
2022-10-08T06:08:33.538Z,16.43
2022-10-08T06:11:04.116Z,21.00
2022-10-08T06:13:32.245Z,20.37
2022-10-08T06:16:02.230Z,20.37
2022-10-08T06:18:32.453Z,20.47
2022-10-08T06:21:03.802Z,21.33
2022-10-08T06:23:32.007Z,17.20
2022-10-08T06:26:04.612Z,18.67
2022-10-08T06:28:34.232Z,18.33
2022-10-08T06:31:02.766Z,17.63
2022-10-08T06:33:31.248Z,18.70
2022-10-08T06:36:04.879Z,17.00
2022-10-08T06:38:33.748Z,17.43
2022-10-08T06:41:03.302Z,20.97
2022-10-08T06:43:31.595Z,20.07
2022-10-08T06:46:00.990Z,20.33
2022-10-08T06:48:29.226Z,18.13
2022-10-08T06:51:00.912Z,21.07
2022-10-08T06:53:29.477Z,17.50
2022-10-08T06:55:58.973Z,19.00
2022-10-08T06:58:28.600Z,18.67
2022-10-08T07:01:04.078Z,19.93
2022-10-08T07:03:32.463Z,19.27
2022-10-08T07:06:01.950Z,21.60
2022-10-08T07:08:30.813Z,16.80
2022-10-08T07:11:06.599Z,21.47
2022-10-08T07:13:40.645Z,16.40
2022-10-08T07:16:10.556Z,19.77
2022-10-08T07:18:40.353Z,20.97
2022-10-08T07:21:09.654Z,18.20
2022-10-08T07:23:37.805Z,22.80
2022-10-08T07:26:09.885Z,21.17
2022-10-08T07:28:41.024Z,17.03
2022-10-08T07:31:13.879Z,19.53
2022-10-08T07:33:42.294Z,17.77
2022-10-08T07:36:12.125Z,18.97
2022-10-08T07:38:40.676Z,19.53
2022-10-08T07:41:10.164Z,17.00
2022-10-08T07:43:41.437Z,17.20
2022-10-08T07:46:10.874Z,17.07
2022-10-08T07:48:39.387Z,18.87
2022-10-08T07:51:09.584Z,16.23
2022-10-08T07:53:37.993Z,14.67
2022-10-08T07:56:06.315Z,18.67
2022-10-08T07:58:34.516Z,17.87
2022-10-08T08:01:06.253Z,19.40
2022-10-08T08:03:34.625Z,19.23
2022-10-08T08:06:03.338Z,16.50
2022-10-08T08:08:31.894Z,19.70
2022-10-08T08:11:00.835Z,16.53
2022-10-08T08:13:33.060Z,17.90
2022-10-08T08:16:08.703Z,15.90
2022-10-08T08:18:38.710Z,18.33
2022-10-08T08:21:08.731Z,19.00
2022-10-08T08:23:39.285Z,18.13
2022-10-08T08:26:09.394Z,17.93
2022-10-08T08:28:37.883Z,23.77
2022-10-08T08:31:12.689Z,16.97
2022-10-08T08:33:41.374Z,14.47
2022-10-08T08:36:09.916Z,14.77
2022-10-08T08:38:39.057Z,13.33
2022-10-08T08:41:20.557Z,15.00
2022-10-08T08:43:49.165Z,16.20
2022-10-08T08:46:22.139Z,15.33
2022-10-08T08:48:54.549Z,15.70
2022-10-08T08:51:22.733Z,17.17
2022-10-08T08:53:50.924Z,17.43
2022-10-08T08:56:22.658Z,15.30
2022-10-08T08:58:58.685Z,17.77
2022-10-08T09:01:34.105Z,15.27
2022-10-08T09:04:10.854Z,17.37
2022-10-08T09:06:40.888Z,14.63
2022-10-08T09:09:18.800Z,13.40
2022-10-08T09:11:47.765Z,11.40
2022-10-08T09:14:29.041Z,15.07
2022-10-08T09:17:01.217Z,19.37
2022-10-08T09:19:29.405Z,13.63
2022-10-08T09:21:57.556Z,11.43
2022-10-08T09:24:25.991Z,14.30
2022-10-08T09:26:55.252Z,13.93
2022-10-08T09:29:33.625Z,14.67
2022-10-08T09:32:03.289Z,14.80
2022-10-08T09:34:38.863Z,14.70
2022-10-08T09:37:14.427Z,14.90
2022-10-08T09:40:19.410Z,12.07
2022-10-08T09:43:11.465Z,15.50
2022-10-08T09:45:47.240Z,16.50
2022-10-08T09:48:23.392Z,14.80
2022-10-08T09:51:03.682Z,13.80
2022-10-08T09:53:40.056Z,12.07
2022-10-08T09:56:09.983Z,14.20
2022-10-08T09:58:49.457Z,19.07
2022-10-08T10:01:19.299Z,13.03
2022-10-08T10:03:54.726Z,11.77
2022-10-08T10:06:28.062Z,13.43
2022-10-08T10:09:01.712Z,12.90
2022-10-08T10:11:41.727Z,12.97
2022-10-08T10:14:21.282Z,15.50
2022-10-08T10:16:56.626Z,12.33
2022-10-08T10:19:33.381Z,15.10
2022-10-08T10:22:06.033Z,17.53
2022-10-08T10:24:46.113Z,15.03
2022-10-08T10:27:17.782Z,17.67
2022-10-08T10:29:54.531Z,16.77
2022-10-08T10:32:31.112Z,14.10
2022-10-08T10:35:07.252Z,14.27
2022-10-08T10:37:41.475Z,14.37
2022-10-08T10:40:28.082Z,14.30
2022-10-08T10:43:09.598Z,12.30
2022-10-08T10:45:39.856Z,12.90
2022-10-08T10:48:10.236Z,14.57
2022-10-08T10:50:51.585Z,13.07
2022-10-08T10:53:29.027Z,12.07
2022-10-08T10:56:05.606Z,14.40
2022-10-08T10:58:50.619Z,11.10
2022-10-08T11:01:28.483Z,12.13
2022-10-08T11:04:05.406Z,12.40
2022-10-08T11:07:04.231Z,16.27
2022-10-08T11:09:41.326Z,15.97
2022-10-08T11:12:21.664Z,14.63
2022-10-08T11:15:09.371Z,12.63
2022-10-08T11:17:51.868Z,16.80
2022-10-08T11:20:43.688Z,15.90
2022-10-08T11:23:31.860Z,11.90
2022-10-08T11:29:01.546Z,16.67
2022-10-08T11:31:38.093Z,12.87
2022-10-08T11:34:15.286Z,12.80
2022-10-08T11:36:50.592Z,12.63
2022-10-08T11:39:22.696Z,13.83
2022-10-08T11:41:57.695Z,12.70
2022-10-08T11:44:27.756Z,13.73
2022-10-08T11:47:34.322Z,11.43
2022-10-08T11:50:04.847Z,13.93
2022-10-08T11:52:34.842Z,14.83
2022-10-08T11:55:04.739Z,17.90
2022-10-08T11:58:06.200Z,19.00
2022-10-08T12:00:38.120Z,15.53
2022-10-08T12:03:08.613Z,13.67
2022-10-08T12:05:46.682Z,18.00
2022-10-08T12:08:50.971Z,17.15
2022-10-08T12:11:58.829Z,15.17
2022-10-08T12:14:44.541Z,13.02
2022-10-08T12:17:13.021Z,16.08
2022-10-08T12:20:00.981Z,12.40
2022-10-08T12:23:02.274Z,14.35
2022-10-08T12:25:34.627Z,12.48
2022-10-08T12:28:40.443Z,15.93
2022-10-08T12:31:28.376Z,13.52
2022-10-08T12:34:02.677Z,11.70
2022-10-08T12:36:40.264Z,13.90
2022-10-08T12:39:13.640Z,13.85
2022-10-08T12:41:51.819Z,11.93
2022-10-08T12:44:34.972Z,14.43
2022-10-08T12:47:10.563Z,14.25
2022-10-08T12:49:43.523Z,15.18
2022-10-08T12:52:14.656Z,13.38
2022-10-08T12:54:50.017Z,14.02
2022-10-08T12:57:22.923Z,17.25
2022-10-08T12:59:51.731Z,15.03
2022-10-08T13:02:38.171Z,13.82
2022-10-08T13:05:07.150Z,11.00
2022-10-08T13:07:36.733Z,13.25
2022-10-08T13:10:19.200Z,10.07
2022-10-08T13:13:00.378Z,11.50
2022-10-08T13:15:28.507Z,10.85
2022-10-08T13:17:58.281Z,13.00
2022-10-08T13:20:27.234Z,12.85
2022-10-08T13:22:55.432Z,13.45
2022-10-08T13:25:37.943Z,16.23
2022-10-08T13:28:10.960Z,11.57
2022-10-08T13:30:39.452Z,14.77
2022-10-08T13:33:16.508Z,14.87
2022-10-08T13:35:50.962Z,17.27
2022-10-08T13:38:23.403Z,14.90
2022-10-08T13:40:53.629Z,17.87
2022-10-08T13:43:22.801Z,14.97
2022-10-08T13:45:50.921Z,17.10
2022-10-08T13:48:20.407Z,13.32
2022-10-08T13:50:51.141Z,15.63
2022-10-08T13:53:22.377Z,13.20
2022-10-08T13:55:51.304Z,13.90
2022-10-08T13:58:20.864Z,14.60
2022-10-08T14:00:49.722Z,14.97
2022-10-08T14:03:17.998Z,12.17
2022-10-08T14:05:49.168Z,13.83
2022-10-08T14:08:19.974Z,16.67
2022-10-08T14:10:48.322Z,14.93
2022-10-08T14:13:17.344Z,16.20
2022-10-08T14:15:45.554Z,14.17
2022-10-08T14:18:13.653Z,12.87
2022-10-08T14:20:41.976Z,18.87
2022-10-08T14:23:14.188Z,20.03
2022-10-08T14:25:42.345Z,13.30
2022-10-08T14:28:10.610Z,12.43
2022-10-08T14:30:38.882Z,15.17
2022-10-08T14:33:11.171Z,12.97
2022-10-08T14:35:40.225Z,12.83
2022-10-08T14:38:08.648Z,18.30
2022-10-08T14:40:38.984Z,13.47
2022-10-08T14:43:07.155Z,11.67
2022-10-08T14:45:35.382Z,19.00
2022-10-08T14:48:03.702Z,16.30
2022-10-08T14:50:32.132Z,19.23
2022-10-08T14:53:00.271Z,17.57
2022-10-08T14:55:28.429Z,14.50
2022-10-08T14:57:57.887Z,20.10
2022-10-08T15:00:26.075Z,18.73
2022-10-08T15:02:54.278Z,15.10
2022-10-08T15:05:22.400Z,13.43
2022-10-08T15:07:50.660Z,15.40
2022-10-08T15:10:19.021Z,17.33
2022-10-08T15:12:47.481Z,13.37
2022-10-08T15:15:19.749Z,18.70
2022-10-08T15:17:48.769Z,15.60
2022-10-08T15:20:17.415Z,19.57
2022-10-08T15:22:45.830Z,18.23
2022-10-08T15:25:14.654Z,21.27
2022-10-08T15:27:43.509Z,15.23
2022-10-08T15:30:13.371Z,16.87
2022-10-08T15:32:42.848Z,24.77
2022-10-08T15:35:11.321Z,18.00
2022-10-08T15:37:39.861Z,18.00
2022-10-08T15:40:08.779Z,19.63
2022-10-08T15:42:36.946Z,18.73
2022-10-08T15:45:05.673Z,19.93
2022-10-08T15:47:33.910Z,21.27
2022-10-08T15:50:03.481Z,23.83
2022-10-08T15:52:33.227Z,30.50
2022-10-08T15:55:02.549Z,26.73
2022-10-08T15:57:30.786Z,25.63
2022-10-08T15:59:59.127Z,27.80
2022-10-08T16:02:27.303Z,23.93
2022-10-08T16:04:55.463Z,20.17
2022-10-08T16:07:25.101Z,22.73
2022-10-08T16:09:53.415Z,22.53
2022-10-08T16:12:21.537Z,23.17
2022-10-08T16:14:49.863Z,24.67
2022-10-08T16:17:18.083Z,26.47
2022-10-08T16:19:46.280Z,23.70
2022-10-08T16:22:14.493Z,28.10
2022-10-08T16:24:44.001Z,29.73
2022-10-08T16:27:12.118Z,25.93
2022-10-08T16:29:40.309Z,28.37
2022-10-08T16:32:10.914Z,28.80
2022-10-08T16:34:41.837Z,31.83
2022-10-08T16:37:12.985Z,28.40
2022-10-08T16:39:41.310Z,26.67
2022-10-08T16:42:11.017Z,27.83
2022-10-08T16:44:39.355Z,29.00
2022-10-08T16:47:07.568Z,28.03
2022-10-08T16:49:35.781Z,31.17
2022-10-08T16:52:08.226Z,29.27
2022-10-08T16:54:36.465Z,32.97
2022-10-08T16:57:05.149Z,38.27
2022-10-08T16:59:34.683Z,39.03
2022-10-08T17:02:03.438Z,33.33
2022-10-08T17:04:36.288Z,37.90
2022-10-08T17:07:04.459Z,31.53
2022-10-08T17:09:32.665Z,34.93
2022-10-08T17:12:01.036Z,38.50
2022-10-08T17:14:30.893Z,33.37
2022-10-08T17:17:00.547Z,34.57
2022-10-08T17:19:28.787Z,31.17
2022-10-08T17:21:57.104Z,37.87
2022-10-08T17:24:25.455Z,32.80
2022-10-08T17:26:53.670Z,35.53
2022-10-08T17:29:21.823Z,34.00
2022-10-08T17:31:49.991Z,41.97
2022-10-08T17:34:19.674Z,30.67
2022-10-08T17:36:47.992Z,38.30
2022-10-08T17:39:16.255Z,37.80
2022-10-08T17:41:44.802Z,35.80
2022-10-08T17:44:13.985Z,40.40
2022-10-08T17:46:45.616Z,36.57
2022-10-08T17:49:14.074Z,41.90
2022-10-08T17:51:43.574Z,40.77
2022-10-08T17:54:14.027Z,43.33
2022-10-08T17:56:42.219Z,44.97
2022-10-08T17:59:14.678Z,46.80
2022-10-08T18:01:45.352Z,45.70
2022-10-08T18:04:16.274Z,47.27
2022-10-08T18:06:47.582Z,51.30
2022-10-08T18:09:19.425Z,48.60
2022-10-08T18:11:50.880Z,48.73
2022-10-08T18:14:19.556Z,45.97
2022-10-08T18:16:48.824Z,49.57
2022-10-08T18:19:18.145Z,45.30
2022-10-08T18:21:47.824Z,46.40
2022-10-08T18:24:16.180Z,39.53
2022-10-08T18:26:44.458Z,48.27
2022-10-08T18:29:14.865Z,46.90
2022-10-08T18:31:44.731Z,41.10
2022-10-08T18:34:15.287Z,41.27
2022-10-08T18:36:43.838Z,39.27
2022-10-08T18:39:15.043Z,37.47
2022-10-08T18:41:44.556Z,39.67
2022-10-08T18:44:15.162Z,40.33
2022-10-08T18:46:44.698Z,35.63
2022-10-08T18:49:15.271Z,41.37
2022-10-08T18:51:43.906Z,36.57
2022-10-08T18:54:14.035Z,43.97
2022-10-08T18:56:42.373Z,37.57
2022-10-08T18:59:14.795Z,37.73
2022-10-08T19:01:45.276Z,38.33
2022-10-08T19:04:15.387Z,37.27
2022-10-08T19:06:45.893Z,39.60
2022-10-08T19:09:16.170Z,33.63
2022-10-08T19:11:46.566Z,37.53
2022-10-08T19:14:16.726Z,33.63
2022-10-08T19:16:45.430Z,35.03
2022-10-08T19:19:16.245Z,49.33
2022-10-08T19:21:44.790Z,42.60
2022-10-08T19:24:17.068Z,40.37
2022-10-08T19:26:45.784Z,37.87
2022-10-08T19:29:16.932Z,33.63
2022-10-08T19:31:47.611Z,37.30
2022-10-08T19:34:17.925Z,37.03
2022-10-08T19:36:47.133Z,32.60
2022-10-08T19:39:18.368Z,38.90
2022-10-08T19:41:47.267Z,35.90
2022-10-08T19:44:16.553Z,42.37
2022-10-08T19:46:45.234Z,41.17
2022-10-08T19:49:13.634Z,35.17
2022-10-08T19:51:42.075Z,35.80
2022-10-08T19:54:10.385Z,35.33
2022-10-08T19:56:40.365Z,39.70
2022-10-08T19:59:08.680Z,36.60
2022-10-08T20:01:39.307Z,37.70
2022-10-08T20:04:09.424Z,29.33
2022-10-08T20:06:40.084Z,28.40
2022-10-08T20:09:11.778Z,31.70
2022-10-08T20:11:42.344Z,31.17
2022-10-08T20:14:10.878Z,32.17
2022-10-08T20:16:41.918Z,26.40
2022-10-08T20:19:16.593Z,27.57
2022-10-08T20:21:45.143Z,28.70
2022-10-08T20:24:13.531Z,27.87
2022-10-08T20:26:44.192Z,31.50
2022-10-08T20:29:14.165Z,31.57
2022-10-08T20:31:45.002Z,25.60
2022-10-08T20:34:14.963Z,25.47
2022-10-08T20:36:43.166Z,27.73
2022-10-08T20:39:12.684Z,27.83
2022-10-08T20:41:42.232Z,32.07
2022-10-08T20:44:10.659Z,27.70
2022-10-08T20:46:39.382Z,29.80
2022-10-08T20:49:08.220Z,27.17
2022-10-08T20:51:39.047Z,25.50
2022-10-08T20:54:09.186Z,32.00
2022-10-08T20:56:40.234Z,26.73
2022-10-08T20:59:10.773Z,30.60
2022-10-08T21:01:39.946Z,30.50
2022-10-08T21:04:09.011Z,24.93
2022-10-08T21:06:39.658Z,33.43
2022-10-08T21:09:08.527Z,29.83
2022-10-08T21:11:37.549Z,34.83
2022-10-08T21:14:06.873Z,26.83
2022-10-08T21:16:38.240Z,32.30
2022-10-08T21:19:08.413Z,31.27
2022-10-08T21:21:36.610Z,29.43
2022-10-08T21:24:04.897Z,27.60
2022-10-08T21:26:34.291Z,29.47
2022-10-08T21:29:04.642Z,25.70
2022-10-08T21:31:34.227Z,28.67
2022-10-08T21:34:08.333Z,26.80
2022-10-08T21:36:38.617Z,25.23
2022-10-08T21:39:08.591Z,23.97
2022-10-08T21:41:38.603Z,24.73
2022-10-08T21:44:08.538Z,30.20
2022-10-08T21:46:38.827Z,29.53
2022-10-08T21:49:11.478Z,26.00
2022-10-08T21:51:39.595Z,29.03
2022-10-08T21:54:08.535Z,28.03
2022-10-08T21:56:39.166Z,23.60
2022-10-08T21:59:09.836Z,28.07
2022-10-08T22:01:40.422Z,23.30
2022-10-08T22:04:11.756Z,21.57
2022-10-08T22:06:41.934Z,21.70
2022-10-08T22:09:12.239Z,21.07
2022-10-08T22:11:40.440Z,23.87
2022-10-08T22:14:08.698Z,22.80
2022-10-08T22:16:37.522Z,20.93
2022-10-08T22:19:06.062Z,20.90
2022-10-08T22:21:36.103Z,18.43
2022-10-08T22:24:04.675Z,17.53
2022-10-08T22:26:34.880Z,14.57
2022-10-08T22:29:02.988Z,18.37
2022-10-08T22:31:31.294Z,15.60
2022-10-08T22:34:00.015Z,14.07
2022-10-08T22:36:30.741Z,17.53
2022-10-08T22:39:00.678Z,15.03
2022-10-08T22:41:31.354Z,14.33
2022-10-08T22:44:00.018Z,11.97
2022-10-08T22:46:30.875Z,13.13
2022-10-08T22:49:00.364Z,11.43
2022-10-08T22:51:29.210Z,17.17
2022-10-08T22:53:57.512Z,13.70
2022-10-08T22:56:28.911Z,13.13
2022-10-08T22:58:57.240Z,16.53
2022-10-08T23:01:26.740Z,14.73
2022-10-08T23:03:54.981Z,14.43
2022-10-08T23:06:24.810Z,16.83
2022-10-08T23:08:55.511Z,14.07
2022-10-08T23:11:24.114Z,19.23
2022-10-08T23:13:55.463Z,17.73
2022-10-08T23:16:24.466Z,13.13
2022-10-08T23:18:55.117Z,15.50
2022-10-08T23:21:23.907Z,11.67
2022-10-08T23:23:53.789Z,12.50
2022-10-08T23:26:22.700Z,16.70
2022-10-08T23:28:53.920Z,11.23
2022-10-08T23:31:23.841Z,15.60
2022-10-08T23:33:53.461Z,22.10
2022-10-08T23:36:24.928Z,15.17
2022-10-08T23:38:53.338Z,13.17
2022-10-08T23:41:21.734Z,16.57
2022-10-08T23:43:51.441Z,14.43
2022-10-08T23:46:25.428Z,18.07
2022-10-08T23:48:54.566Z,18.37
2022-10-08T23:51:23.990Z,17.73
2022-10-08T23:53:53.219Z,19.97
2022-10-08T23:56:22.475Z,17.13
2022-10-08T23:58:50.780Z,19.20
